Time;durP1;ratioP1;P1;durP2;ratioP2;P2;SDS_P1;SDS_P2;PMS_P1;PMS_P2;Temp;Humidity;BMP_temperature;BMP_pressure;BME280_temperature;BME280_humidity;BME280_pressure;Samples;Min_cycle;Max_cycle;Signal;HPM_P1;HPM_P2
2024/01/24 00:01:19;;;;;;;;;;;;;;;11.31;100.00;101177.75;5119272;28;19920;-73
2024/01/24 00:03:44;;;;;;;;;;;;;;;11.29;100.00;101205.78;5119738;28;20013;-70
2024/01/24 00:06:09;;;;;;;;;;;;;;;11.26;100.00;101216.38;5106265;28;19963;-70
2024/01/24 00:08:34;;;;;;;;;;;;;;;11.25;100.00;101209.44;5099969;28;19920;-70
2024/01/24 00:11:01;;;;;;;;;;;;;;;11.29;100.00;101250.38;5099230;28;19923;-70
2024/01/24 00:13:26;;;;;;;;;;;;;;;11.24;100.00;101234.81;5099152;28;20227;-70
2024/01/24 00:15:52;;;;;;;;;;;;;;;11.21;100.00;101229.69;5098894;28;19923;-70
2024/01/24 00:18:17;;;;;;;;;;;;;;;11.20;100.00;101229.72;5099039;28;20213;-70
2024/01/24 00:20:42;;;;;;;;;;;;;;;11.22;100.00;101260.22;5099771;28;19983;-70
2024/01/24 00:23:07;;;;;;;;;;;;;;;11.19;100.00;101244.63;5099508;28;19920;-70
2024/01/24 00:25:33;;;;;;;;;;;;;;;11.21;100.00;101234.91;5099909;28;19920;-70
2024/01/24 00:27:58;;;;;;;;;;;;;;;11.17;100.00;101212.38;5099870;28;19978;-70
2024/01/24 00:30:23;;;;;;;;;;;;;;;11.13;100.00;101250.06;5100582;28;20145;-70
2024/01/24 00:32:48;;;;;;;;;;;;;;;11.17;100.00;101243.81;5099271;28;19916;-70
2024/01/24 00:35:15;;;;;;;;;;;;;;;11.16;100.00;101249.13;5099189;28;19927;-70
2024/01/24 00:37:40;;;;;;;;;;;;;;;11.13;100.00;101265.78;5100035;28;19951;-70
2024/01/24 00:40:06;;;;;;;;;;;;;;;11.11;100.00;101242.28;5099098;28;19927;-70
2024/01/24 00:42:31;;;;;;;;;;;;;;;11.08;100.00;101244.16;5099850;28;20108;-70
2024/01/24 00:44:56;;;;;;;;;;;;;;;11.14;100.00;101231.66;5099336;28;19926;-70
2024/01/24 00:47:22;;;;;;;;;;;;;;;11.13;100.00;101245.69;5099898;28;19916;-70
2024/01/24 00:49:47;;;;;;;;;;;;;;;11.11;100.00;101249.28;5087950;28;19955;-70
2024/01/24 00:52:12;;;;;;;;;;;;;;;11.09;100.00;101245.84;5093445;28;19923;-70
2024/01/24 00:54:38;;;;;;;;;;;;;;;11.08;100.00;101238.91;5085353;28;19927;-71
2024/01/24 00:57:03;;;;;;;;;;;;;;;11.13;100.00;101295.50;5096167;28;19978;-70
2024/01/24 00:59:28;;;;;;;;;;;;;;;11.13;100.00;101298.13;5092314;28;19925;-70
2024/01/24 01:01:54;;;;;;;;;;;;;;;11.10;100.00;101258.91;5088046;28;19923;-71
2024/01/24 01:04:19;;;;;;;;;;;;;;;11.07;100.00;101247.69;5090947;28;19919;-70
2024/01/24 01:06:44;;;;;;;;;;;;;;;11.04;100.00;101230.31;5118863;28;20237;-70
2024/01/24 01:09:10;;;;;;;;;;;;;;;11.06;100.00;101270.41;5118977;28;20214;-70
2024/01/24 01:11:35;;;;;;;;;;;;;;;11.07;100.00;101239.81;5120008;28;19927;-70
2024/01/24 01:14:00;;;;;;;;;;;;;;;11.03;100.00;101236.44;5118382;28;19927;-69
2024/01/24 01:16:26;;;;;;;;;;;;;;;11.00;100.00;101228.69;5119526;28;20093;-70
2024/01/24 01:18:51;;;;;;;;;;;;;;;10.99;100.00;101218.25;5117337;28;20368;-73
2024/01/24 01:21:16;;;;;;;;;;;;;;;10.96;100.00;101234.97;5118478;28;19927;-72
2024/01/24 01:23:42;;;;;;;;;;;;;;;10.98;100.00;101224.44;5119343;28;19927;-72
2024/01/24 01:26:07;;;;;;;;;;;;;;;10.97;100.00;101210.47;5118579;28;19920;-72
2024/01/24 01:28:32;;;;;;;;;;;;;;;11.00;100.00;101225.22;5119436;28;19919;-73
2024/01/24 01:30:57;;;;;;;;;;;;;;;11.01;100.00;101237.44;5118549;28;19919;-72
2024/01/24 01:33:23;;;;;;;;;;;;;;;11.03;100.00;101228.59;5117910;28;19920;-72
2024/01/24 01:35:48;;;;;;;;;;;;;;;11.06;100.00;101222.38;5117893;28;19920;-72
2024/01/24 01:38:14;;;;;;;;;;;;;;;11.08;100.00;101200.44;5117611;28;20005;-73
2024/01/24 01:40:39;;;;;;;;;;;;;;;11.06;100.00;101214.50;5118427;28;19947;-73
2024/01/24 01:43:14;;;;;;;;;;;;;;;11.03;100.00;101225.13;5117178;28;19927;-72
2024/01/24 01:45:40;;;;;;;;;;;;;;;11.01;100.00;101212.06;5119103;28;19932;-73
2024/01/24 01:48:05;;;;;;;;;;;;;;;11.00;100.00;101209.50;5117108;28;20240;-72
2024/01/24 01:50:31;;;;;;;;;;;;;;;10.99;100.00;101232.25;5117579;28;19919;-73
2024/01/24 01:52:56;;;;;;;;;;;;;;;10.97;100.00;101249.78;5118309;28;19919;-72
2024/01/24 01:55:21;;;;;;;;;;;;;;;10.95;100.00;101244.59;5118045;28;19915;-73
2024/01/24 01:57:47;;;;;;;;;;;;;;;10.94;100.00;101255.97;5117445;28;20246;-73
2024/01/24 02:00:20;;;;;;;;;;;;;;;10.97;100.00;101243.66;5117133;28;20219;-72
2024/01/24 02:02:46;;;;;;;;;;;;;;;10.94;100.00;101228.91;5117032;28;19929;-72
2024/01/24 02:05:11;;;;;;;;;;;;;;;10.92;100.00;101228.97;5117218;28;20274;-73
2024/01/24 02:07:36;;;;;;;;;;;;;;;10.88;100.00;101222.13;5116992;28;20055;-72
2024/01/24 02:10:01;;;;;;;;;;;;;;;10.87;100.00;101220.41;5116872;28;20153;-72
2024/01/24 02:12:27;;;;;;;;;;;;;;;10.88;100.00;101247.50;5099799;28;20194;-72
2024/01/24 02:14:52;;;;;;;;;;;;;;;10.86;100.00;101276.38;5116465;28;19931;-72
2024/01/24 02:17:17;;;;;;;;;;;;;;;10.88;100.00;101247.50;5116176;28;19916;-72
2024/01/24 02:19:42;;;;;;;;;;;;;;;10.87;100.00;101264.97;5116924;28;19951;-72
2024/01/24 02:22:07;;;;;;;;;;;;;;;10.89;100.00;101271.00;5116028;28;19915;-72
2024/01/24 02:24:33;;;;;;;;;;;;;;;10.86;100.00;101292.09;5117333;28;19951;-72
2024/01/24 02:26:58;;;;;;;;;;;;;;;10.82;100.00;101279.97;5116990;28;20001;-72
2024/01/24 02:29:23;;;;;;;;;;;;;;;10.76;100.00;101301.16;5116948;28;20126;-73
2024/01/24 02:31:48;;;;;;;;;;;;;;;10.75;100.00;101276.75;5117426;28;20219;-73
2024/01/24 02:34:14;;;;;;;;;;;;;;;10.77;100.00;101292.41;5116826;28;20106;-72
2024/01/24 02:36:39;;;;;;;;;;;;;;;10.79;100.00;101274.00;5116291;28;20052;-73
2024/01/24 02:39:04;;;;;;;;;;;;;;;10.76;100.00;101265.31;5116501;28;19927;-73
2024/01/24 02:41:31;;;;;;;;;;;;;;;10.73;100.00;101275.06;5117177;28;19923;-73
2024/01/24 02:43:56;;;;;;;;;;;;;;;10.68;100.00;101293.56;5116112;28;19951;-72
2024/01/24 02:46:21;;;;;;;;;;;;;;;10.63;100.00;101285.00;5116548;28;19989;-73
2024/01/24 02:48:46;;;;;;;;;;;;;;;10.58;100.00;101310.50;5116061;28;19924;-73
2024/01/24 02:51:11;;;;;;;;;;;;;;;10.56;100.00;101286.13;5115421;28;19964;-73
2024/01/24 02:53:38;;;;;;;;;;;;;;;10.52;100.00;101287.97;5116329;28;20010;-73
2024/01/24 02:56:03;;;;;;;;;;;;;;;10.49;100.00;101250.56;5115866;28;19920;-73
2024/01/24 02:58:28;;;;;;;;;;;;;;;10.51;100.00;101265.34;5116398;28;19969;-72
2024/01/24 03:00:53;;;;;;;;;;;;;;;10.50;100.00;101294.19;5116423;28;20130;-73
2024/01/24 03:03:19;;;;;;;;;;;;;;;10.48;100.00;101286.38;5115989;28;20220;-73
2024/01/24 03:05:44;;;;;;;;;;;;;;;10.46;100.00;101284.69;5117657;28;19923;-73
2024/01/24 03:08:10;;;;;;;;;;;;;;;10.48;100.00;101286.38;5116241;28;19930;-73
2024/01/24 03:10:35;;;;;;;;;;;;;;;10.44;100.00;101289.13;5119968;28;19911;-73
2024/01/24 03:13:00;;;;;;;;;;;;;;;10.41;100.00;101273.53;5119674;28;20104;-73
2024/01/24 03:15:26;;;;;;;;;;;;;;;10.38;100.00;101319.00;5120576;28;19916;-72
2024/01/24 03:17:51;;;;;;;;;;;;;;;10.36;100.00;101307.72;5118139;28;19919;-72
2024/01/24 03:20:17;;;;;;;;;;;;;;;10.33;100.00;101305.19;5113639;28;19981;-73
2024/01/24 03:22:42;;;;;;;;;;;;;;;10.30;100.00;101282.56;5119903;28;20002;-72
2024/01/24 03:25:07;;;;;;;;;;;;;;;10.25;100.00;101294.94;5119445;28;19916;-72
2024/01/24 03:27:32;;;;;;;;;;;;;;;10.24;100.00;101303.72;5118466;28;19919;-72
2024/01/24 03:29:58;;;;;;;;;;;;;;;10.21;100.00;101316.03;5115392;28;20303;-75
2024/01/24 03:32:23;;;;;;;;;;;;;;;10.15;100.00;101319.69;5106361;28;20212;-76
2024/01/24 03:34:55;;;;;;;;;;;;;;;10.13;100.00;101318.88;5114482;28;20096;-75
2024/01/24 03:37:20;;;;;;;;;;;;;;;10.12;100.00;101298.88;5114302;28;20283;-75
2024/01/24 03:39:45;;;;;;;;;;;;;;;10.10;100.00;101316.38;5114453;28;19920;-75
2024/01/24 03:42:10;;;;;;;;;;;;;;;10.07;100.00;101332.16;5114041;28;19920;-75
2024/01/24 03:44:36;;;;;;;;;;;;;;;10.06;100.00;101347.03;5106143;28;19919;-76
2024/01/24 03:47:01;;;;;;;;;;;;;;;10.04;100.00;101317.44;5114376;28;19923;-75
2024/01/24 03:49:26;;;;;;;;;;;;;;;9.99;100.00;101329.78;5113848;28;19926;-75
2024/01/24 03:51:53;;;;;;;;;;;;;;;9.95;100.00;101305.47;5113885;28;20183;-75
2024/01/24 03:54:19;;;;;;;;;;;;;;;9.93;100.00;101303.78;5114556;28;20141;-75
2024/01/24 03:56:44;;;;;;;;;;;;;;;9.94;100.00;101329.91;5114777;28;20175;-75
2024/01/24 03:59:09;;;;;;;;;;;;;;;9.93;100.00;101345.66;5113433;28;19941;-75
2024/01/24 04:01:35;;;;;;;;;;;;;;;9.90;100.00;101343.16;5114480;28;19912;-75
2024/01/24 04:04:00;;;;;;;;;;;;;;;9.85;100.00;101345.03;5112782;28;19930;-75
2024/01/24 04:06:25;;;;;;;;;;;;;;;9.89;100.00;101328.34;5113971;28;20265;-75
2024/01/24 04:08:51;;;;;;;;;;;;;;;9.91;100.00;101357.94;5113929;28;19927;-75
2024/01/24 04:11:16;;;;;;;;;;;;;;;9.93;100.00;101345.66;5114518;28;19919;-75
2024/01/24 04:13:44;;;;;;;;;;;;;;;9.91;100.00;101331.75;5113600;28;20192;-75
2024/01/24 04:16:09;;;;;;;;;;;;;;;9.87;100.00;101336.22;5113613;28;19920;-75
2024/01/24 04:18:35;;;;;;;;;;;;;;;9.83;100.00;101323.31;5113763;28;19926;-75
2024/01/24 04:21:00;;;;;;;;;;;;;;;9.82;100.00;101330.28;5114146;28;19926;-73
2024/01/24 04:23:26;;;;;;;;;;;;;;;9.81;100.00;101344.28;5113645;28;19996;-73
2024/01/24 04:25:51;;;;;;;;;;;;;;;9.80;100.00;101359.13;5113896;28;20096;-74
2024/01/24 04:28:17;;;;;;;;;;;;;;;9.85;100.00;101347.66;5114162;28;19955;-75
2024/01/24 04:30:42;;;;;;;;;;;;;;;9.89;100.00;101367.59;5113849;28;19916;-75
2024/01/24 04:33:08;;;;;;;;;;;;;;;9.93;100.00;101371.81;5113300;28;19926;-75
2024/01/24 04:35:33;;;;;;;;;;;;;;;9.92;100.00;101364.88;5114253;28;19920;-75
2024/01/24 04:37:58;;;;;;;;;;;;;;;9.94;100.00;101361.31;5112429;28;19924;-75
2024/01/24 04:40:23;;;;;;;;;;;;;;;9.96;100.00;101356.03;5116963;28;19920;-75
2024/01/24 04:42:48;;;;;;;;;;;;;;;9.95;100.00;101388.31;5117446;28;20250;-75
2024/01/24 04:45:15;;;;;;;;;;;;;;;9.91;100.00;101391.94;5117418;28;20041;-75
2024/01/24 04:47:42;;;;;;;;;;;;;;;9.90;100.00;101409.41;5099260;28;19920;-75
2024/01/24 04:50:08;;;;;;;;;;;;;;;9.89;100.00;101402.44;5116689;28;19923;-75
2024/01/24 04:52:33;;;;;;;;;;;;;;;9.86;100.00;101413.03;5117187;28;19965;-75
2024/01/24 04:54:59;;;;;;;;;;;;;;;9.87;100.00;101403.41;5117234;28;20242;-75
2024/01/24 04:57:24;;;;;;;;;;;;;;;9.89;100.00;101425.13;5116892;28;19920;-75
2024/01/24 04:59:49;;;;;;;;;;;;;;;9.88;100.00;101460.06;5117128;28;20235;-75
2024/01/24 05:02:14;;;;;;;;;;;;;;;9.86;100.00;101438.31;5117309;28;19950;-75
2024/01/24 05:04:39;;;;;;;;;;;;;;;9.89;100.00;101454.78;5117208;28;20135;-75
2024/01/24 05:07:05;;;;;;;;;;;;;;;9.88;100.00;101441.75;5116536;28;20100;-75
2024/01/24 05:09:30;;;;;;;;;;;;;;;9.88;100.00;101437.38;5117413;28;20161;-75
2024/01/24 05:11:55;;;;;;;;;;;;;;;9.84;100.00;101409.59;5116838;28;19922;-75
2024/01/24 05:14:20;;;;;;;;;;;;;;;9.86;100.00;101402.56;5116531;28;19919;-75
2024/01/24 05:16:47;;;;;;;;;;;;;;;9.82;100.00;101421.84;5117290;28;20010;-75
2024/01/24 05:19:12;;;;;;;;;;;;;;;9.79;100.00;101401.88;5116252;28;19927;-75
2024/01/24 05:21:41;;;;;;;;;;;;;;;9.75;100.00;101420.28;5116956;28;19912;-75
2024/01/24 05:24:08;;;;;;;;;;;;;;;9.72;100.00;101442.16;5116123;28;19919;-75
2024/01/24 05:26:34;;;;;;;;;;;;;;;9.68;100.00;101411.78;5117114;28;20235;-75
2024/01/24 05:28:59;;;;;;;;;;;;;;;9.64;100.00;101423.22;5115909;28;19920;-75
2024/01/24 05:31:25;;;;;;;;;;;;;;;9.59;100.00;101428.56;5117333;28;19916;-74
2024/01/24 05:33:50;;;;;;;;;;;;;;;9.59;100.00;101432.94;5115531;28;19919;-74
2024/01/24 05:36:15;;;;;;;;;;;;;;;9.53;100.00;101430.47;5116790;28;19923;-73
2024/01/24 05:38:40;;;;;;;;;;;;;;;9.49;100.00;101449.78;5116639;28;19964;-74
2024/01/24 05:41:06;;;;;;;;;;;;;;;9.48;100.00;101454.16;5115880;28;19920;-73
2024/01/24 05:43:31;;;;;;;;;;;;;;;9.46;100.00;101460.31;5116150;28;19927;-73
2024/01/24 05:45:56;;;;;;;;;;;;;;;9.42;100.00;101469.97;5115924;28;19931;-73
2024/01/24 05:48:21;;;;;;;;;;;;;;;9.38;100.00;101484.03;5115623;28;19958;-73
2024/01/24 05:50:47;;;;;;;;;;;;;;;9.36;100.00;101489.28;5097173;28;19919;-73
2024/01/24 05:53:12;;;;;;;;;;;;;;;9.32;100.00;101520.78;5115380;28;19926;-73
2024/01/24 05:55:37;;;;;;;;;;;;;;;9.28;100.00;101496.50;5116682;28;19920;-73
2024/01/24 05:58:03;;;;;;;;;;;;;;;9.26;100.00;101521.81;5097558;28;19927;-73
2024/01/24 06:00:29;;;;;;;;;;;;;;;9.26;100.00;101503.50;5116261;28;19920;-73
2024/01/24 06:02:54;;;;;;;;;;;;;;;9.22;100.00;101531.47;5116223;28;19998;-73
2024/01/24 06:05:19;;;;;;;;;;;;;;;9.26;100.00;101531.38;5115786;28;19920;-73
2024/01/24 06:07:48;;;;;;;;;;;;;;;9.20;100.00;101540.22;5115650;28;19939;-74
2024/01/24 06:10:13;;;;;;;;;;;;;;;9.16;100.00;101557.75;5115516;28;19926;-73
2024/01/24 06:12:38;;;;;;;;;;;;;;;9.12;100.00;101556.09;5115738;28;19919;-73
2024/01/24 06:15:04;;;;;;;;;;;;;;;9.11;100.00;101566.59;5115406;28;19928;-73
2024/01/24 06:17:29;;;;;;;;;;;;;;;9.08;100.00;101577.09;5115911;28;19986;-73
2024/01/24 06:19:54;;;;;;;;;;;;;;;9.07;100.00;101567.56;5114332;28;19955;-73
2024/01/24 06:22:19;;;;;;;;;;;;;;;9.01;100.00;101579.00;5111924;28;20313;-74
2024/01/24 06:24:45;;;;;;;;;;;;;;;8.94;100.00;101566.97;5115348;28;19915;-74
2024/01/24 06:27:10;;;;;;;;;;;;;;;8.92;100.00;101566.16;5115469;28;19966;-74
2024/01/24 06:29:36;;;;;;;;;;;;;;;8.86;100.00;101566.25;5115106;28;19931;-74
2024/01/24 06:32:01;;;;;;;;;;;;;;;8.81;100.00;101585.53;5114789;28;19919;-74
2024/01/24 06:34:26;;;;;;;;;;;;;;;8.80;100.00;101581.19;5114789;28;19946;-74
2024/01/24 06:36:51;;;;;;;;;;;;;;;8.76;100.00;101584.75;5113104;28;20434;-74
2024/01/24 06:39:17;;;;;;;;;;;;;;;8.76;100.00;101615.25;5114699;28;19919;-74
2024/01/24 06:41:43;;;;;;;;;;;;;;;8.76;100.00;101628.28;5115256;28;20211;-74
2024/01/24 06:44:08;;;;;;;;;;;;;;;8.73;100.00;101626.63;5111288;28;19923;-74
2024/01/24 06:46:43;;;;;;;;;;;;;;;8.69;100.00;101644.97;5114749;28;19926;-74
2024/01/24 06:49:11;;;;;;;;;;;;;;;8.67;100.00;101657.22;5114129;28;20261;-74
2024/01/24 06:51:40;;;;;;;;;;;;;;;8.67;100.00;101652.00;5113877;28;19919;-74
2024/01/24 06:54:06;;;;;;;;;;;;;;;8.62;100.00;101624.22;5113655;28;19927;-73
2024/01/24 06:56:31;;;;;;;;;;;;;;;8.57;99.96;101618.22;5113987;28;19923;-74
2024/01/24 06:58:56;;;;;;;;;;;;;;;8.56;100.00;101623.47;5114380;28;19943;-74
2024/01/24 07:01:21;;;;;;;;;;;;;;;8.55;99.86;101633.06;5114761;28;20143;-74
2024/01/24 07:03:47;;;;;;;;;;;;;;;8.56;99.68;101631.31;5114200;28;20387;-74
2024/01/24 07:06:13;;;;;;;;;;;;;;;8.55;99.60;101646.13;5108618;28;19954;-74
2024/01/24 07:08:39;;;;;;;;;;;;;;;8.52;99.11;101646.16;5114335;28;20172;-74
2024/01/24 07:11:05;;;;;;;;;;;;;;;8.51;98.49;101643.59;5113810;28;19942;-74
2024/01/24 07:13:31;;;;;;;;;;;;;;;8.50;98.77;101629.69;5113508;28;20290;-74
2024/01/24 07:15:56;;;;;;;;;;;;;;;8.49;98.65;101650.59;5112662;28;20293;-74
2024/01/24 07:18:21;;;;;;;;;;;;;;;8.54;97.53;101652.22;5114029;28;19923;-74
2024/01/24 07:20:46;;;;;;;;;;;;;;;8.53;97.22;101668.78;5114212;28;19941;-73
2024/01/24 07:23:11;;;;;;;;;;;;;;;8.53;97.04;101647.91;5113795;28;19911;-74
2024/01/24 07:25:37;;;;;;;;;;;;;;;8.53;96.97;101670.53;5114063;28;19928;-74
2024/01/24 07:28:02;;;;;;;;;;;;;;;8.57;96.02;101664.38;5110582;28;19946;-74
2024/01/24 07:30:27;;;;;;;;;;;;;;;8.56;95.77;101675.69;5114763;28;20182;-73
2024/01/24 07:32:53;;;;;;;;;;;;;;;8.58;95.58;101673.91;5113799;28;19923;-73
2024/01/24 07:35:18;;;;;;;;;;;;;;;8.55;95.96;101692.22;5114857;28;19919;-73
2024/01/24 07:37:44;;;;;;;;;;;;;;;8.54;96.56;101709.66;5114045;28;19927;-73
2024/01/24 07:40:10;;;;;;;;;;;;;;;8.51;96.61;101722.75;5113945;28;19920;-74
2024/01/24 07:42:36;;;;;;;;;;;;;;;8.49;96.17;101714.09;5112496;28;19982;-74
2024/01/24 07:45:01;;;;;;;;;;;;;;;8.49;96.15;101724.53;5113273;28;20214;-73
2024/01/24 07:47:26;;;;;;;;;;;;;;;8.49;96.10;101708.88;5113523;28;19916;-74
2024/01/24 07:49:51;;;;;;;;;;;;;;;8.46;96.12;101722.00;5112548;28;19927;-73
2024/01/24 07:52:17;;;;;;;;;;;;;;;8.50;96.51;101715.84;5113771;28;19966;-74
2024/01/24 07:54:42;;;;;;;;;;;;;;;8.49;96.84;101783.72;5115095;28;19920;-73
2024/01/24 07:57:07;;;;;;;;;;;;;;;8.50;96.40;101755.00;5114044;28;19919;-74
2024/01/24 07:59:33;;;;;;;;;;;;;;;8.49;96.68;101794.16;5115653;28;19926;-74
2024/01/24 08:01:58;;;;;;;;;;;;;;;8.48;97.26;101758.50;5113761;28;20198;-73
2024/01/24 08:04:23;;;;;;;;;;;;;;;8.47;96.74;101755.03;5114137;28;19987;-74
2024/01/24 08:06:48;;;;;;;;;;;;;;;8.47;97.08;101751.56;5114601;28;19924;-73
2024/01/24 08:09:14;;;;;;;;;;;;;;;8.43;97.58;101756.84;5114685;28;19950;-74
2024/01/24 08:11:39;;;;;;;;;;;;;;;8.43;97.92;101779.47;5097020;28;19926;-73
2024/01/24 08:14:05;;;;;;;;;;;;;;;8.44;97.62;101796.84;5114958;28;19920;-74
2024/01/24 08:16:31;;;;;;;;;;;;;;;8.47;97.56;101788.13;5118506;28;19955;-73
2024/01/24 08:18:58;;;;;;;;;;;;;;;8.47;97.90;101801.19;5117001;28;19920;-73
2024/01/24 08:21:23;;;;;;;;;;;;;;;8.46;98.08;101782.03;5118955;28;19923;-73
2024/01/24 08:23:48;;;;;;;;;;;;;;;8.48;97.42;101790.72;5118555;28;20142;-74
2024/01/24 08:26:13;;;;;;;;;;;;;;;8.46;97.36;101792.50;5118244;28;19931;-73
2024/01/24 08:28:39;;;;;;;;;;;;;;;8.49;96.80;101812.44;5118503;28;19989;-74
2024/01/24 08:31:05;;;;;;;;;;;;;;;8.51;96.74;101795.00;5118305;28;19916;-73
2024/01/24 08:33:32;;;;;;;;;;;;;;;8.50;96.88;101806.34;5118719;28;20317;-74
2024/01/24 08:35:57;;;;;;;;;;;;;;;8.48;97.29;101835.09;5118149;28;19922;-73
2024/01/24 08:38:23;;;;;;;;;;;;;;;8.49;97.33;101808.09;5118398;28;19920;-73
2024/01/24 08:40:48;;;;;;;;;;;;;;;8.47;97.44;101802.03;5118348;28;20167;-73
2024/01/24 08:43:13;;;;;;;;;;;;;;;8.50;96.75;101824.63;5117547;28;19920;-73
2024/01/24 08:45:38;;;;;;;;;;;;;;;8.52;96.92;101822.84;5118694;28;20100;-73
2024/01/24 08:48:04;;;;;;;;;;;;;;;8.52;97.03;101851.56;5117780;28;20111;-73
2024/01/24 08:50:29;;;;;;;;;;;;;;;8.50;97.28;101842.91;5117425;28;19920;-74
2024/01/24 08:52:54;;;;;;;;;;;;;;;8.50;97.31;101867.25;5117316;28;19996;-73
2024/01/24 08:55:20;;;;;;;;;;;;;;;8.52;97.40;101864.63;5118440;28;19915;-73
2024/01/24 08:57:45;;;;;;;;;;;;;;;8.52;97.08;101860.25;5118036;28;19920;-74
2024/01/24 09:00:11;;;;;;;;;;;;;;;8.52;97.18;101852.44;5117383;28;19983;-73
2024/01/24 09:02:36;;;;;;;;;;;;;;;8.51;97.04;101853.28;5117869;28;20455;-73
2024/01/24 09:05:02;;;;;;;;;;;;;;;8.52;97.25;101872.47;5117085;28;20159;-73
2024/01/24 09:07:27;;;;;;;;;;;;;;;8.51;97.37;101897.69;5117554;28;19924;-73
2024/01/24 09:09:53;;;;;;;;;;;;;;;8.51;97.29;101884.63;5115478;28;19951;-73
2024/01/24 09:12:18;;;;;;;;;;;;;;;8.56;96.85;101921.13;5116712;28;19957;-73
2024/01/24 09:14:44;;;;;;;;;;;;;;;8.56;97.08;101895.00;5117287;28;19955;-73
2024/01/24 09:17:10;;;;;;;;;;;;;;;8.55;97.41;101924.59;5115006;28;20165;-73
2024/01/24 09:19:36;;;;;;;;;;;;;;;8.52;97.63;101909.88;5116653;28;20196;-73
2024/01/24 09:22:01;;;;;;;;;;;;;;;8.50;97.65;101927.31;5113545;28;20199;-73
2024/01/24 09:24:26;;;;;;;;;;;;;;;8.50;97.87;101945.56;5116048;28;19954;-73
2024/01/24 09:26:51;;;;;;;;;;;;;;;8.51;97.45;101949.03;5114280;28;19968;-73
2024/01/24 09:29:18;;;;;;;;;;;;;;;8.49;98.06;101959.50;5109655;27;20012;-73
2024/01/24 09:31:45;;;;;;;;;;;;;;;8.46;98.30;101964.78;5120999;27;19920;-73
2024/01/24 09:34:13;;;;;;;;;;;;;;;8.50;97.43;101929.06;5110375;27;19983;-74
2024/01/24 09:36:38;;;;;;;;;;;;;;;8.49;98.06;101932.53;5104819;27;20088;-73
2024/01/24 09:39:04;;;;;;;;;;;;;;;8.48;98.24;101952.56;5110493;27;19964;-74
2024/01/24 09:41:34;;;;;;;;;;;;;;;8.47;98.23;101943.00;5112847;27;19919;-73
2024/01/24 09:44:03;;;;;;;;;;;;;;;8.48;98.47;101951.69;5110545;27;19924;-73
2024/01/24 09:46:29;;;;;;;;;;;;;;;8.47;98.69;101958.66;5111114;28;20089;-73
2024/01/24 09:48:54;;;;;;;;;;;;;;;8.49;98.56;101945.59;5110590;28;20172;-73
2024/01/24 09:51:19;;;;;;;;;;;;;;;8.51;98.75;101970.78;5110059;28;20226;-73
2024/01/24 09:53:46;;;;;;;;;;;;;;;8.52;98.44;101959.47;5110602;28;19919;-73
2024/01/24 09:56:12;;;;;;;;;;;;;;;8.56;98.41;101984.66;5108168;28;20201;-74
2024/01/24 09:58:37;;;;;;;;;;;;;;;8.58;98.43;101980.25;5100426;28;19924;-74
2024/01/24 10:01:04;;;;;;;;;;;;;;;8.60;98.04;101988.06;5094067;28;19920;-74
2024/01/24 10:03:29;;;;;;;;;;;;;;;8.64;98.42;102006.31;5098043;28;19956;-74
2024/01/24 10:05:55;;;;;;;;;;;;;;;8.67;97.69;102018.44;5100251;28;19924;-74
2024/01/24 10:08:20;;;;;;;;;;;;;;;8.66;97.55;102011.50;5109360;28;19950;-74
2024/01/24 10:10:46;;;;;;;;;;;;;;;8.67;98.03;102012.38;5110358;28;20415;-74
2024/01/24 10:13:11;;;;;;;;;;;;;;;8.66;98.69;102032.41;5109250;28;19966;-74
2024/01/24 10:15:37;;;;;;;;;;;;;;;8.65;98.04;102052.41;5099161;28;20210;-74
2024/01/24 10:18:02;;;;;;;;;;;;;;;8.68;98.12;102050.63;5097412;28;19920;-74
2024/01/24 10:20:28;;;;;;;;;;;;;;;8.70;98.74;102061.97;5096131;28;19955;-74
2024/01/24 10:22:53;;;;;;;;;;;;;;;8.70;97.85;102062.81;5099991;28;20010;-74
2024/01/24 10:25:19;;;;;;;;;;;;;;;8.73;97.71;102044.50;5110480;28;19927;-74
2024/01/24 10:27:44;;;;;;;;;;;;;;;8.72;98.09;102066.25;5106445;28;19920;-74
2024/01/24 10:30:11;;;;;;;;;;;;;;;8.71;98.48;102085.41;5108893;28;19946;-74
2024/01/24 10:32:37;;;;;;;;;;;;;;;8.69;98.75;102057.59;5107501;28;19927;-74
2024/01/24 10:35:05;;;;;;;;;;;;;;;8.65;98.48;102052.41;5109667;28;19923;-74
2024/01/24 10:37:32;;;;;;;;;;;;;;;8.66;98.31;102061.13;5108981;28;19919;-74
2024/01/24 10:40:04;;;;;;;;;;;;;;;8.65;98.92;102068.09;5095893;28;20111;-74
2024/01/24 10:42:34;;;;;;;;;;;;;;;8.68;98.27;102076.75;5096098;28;20380;-74
2024/01/24 10:45:03;;;;;;;;;;;;;;;8.67;98.40;102107.25;5096362;28;19928;-73
2024/01/24 10:47:29;;;;;;;;;;;;;;;8.67;98.44;102075.91;5093577;28;19924;-74
2024/01/24 10:49:55;;;;;;;;;;;;;;;8.71;97.34;102089.78;5094868;28;20212;-74
2024/01/24 10:52:22;;;;;;;;;;;;;;;8.70;98.22;102101.13;5095397;28;19919;-73
2024/01/24 10:54:48;;;;;;;;;;;;;;;8.69;98.34;102079.34;5095141;28;19943;-74
2024/01/24 10:57:14;;;;;;;;;;;;;;;8.69;98.08;102096.78;5103716;28;19964;-74
2024/01/24 10:59:43;;;;;;;;;;;;;;;8.67;98.55;102102.03;5111148;28;19926;-73
2024/01/24 11:02:09;;;;;;;;;;;;;;;8.67;98.38;102102.03;5109558;28;19923;-74
2024/01/24 11:04:36;;;;;;;;;;;;;;;8.68;97.75;102084.59;5096275;28;19927;-73
2024/01/24 11:07:07;;;;;;;;;;;;;;;8.68;98.68;102113.31;5096066;28;19924;-73
2024/01/24 11:09:53;;;;;;;;;;;;;;;8.68;97.72;102097.66;5095646;28;20185;-73
2024/01/24 11:12:19;;;;;;;;;;;;;;;8.69;97.89;102108.09;5096201;28;19955;-73
2024/01/24 11:14:46;;;;;;;;;;;;;;;8.68;98.19;102137.72;5099238;28;19927;-74
2024/01/24 11:17:12;;;;;;;;;;;;;;;8.68;97.80;102129.88;5108518;28;19923;-73
2024/01/24 11:19:37;;;;;;;;;;;;;;;8.68;98.54;102149.88;5106937;28;19931;-73
2024/01/24 11:22:08;;;;;;;;;;;;;;;8.68;98.68;102149.88;5109693;28;19924;-73
2024/01/24 11:24:39;;;;;;;;;;;;;;;8.68;98.09;102160.31;5098099;28;19920;-73
2024/01/24 11:27:23;;;;;;;;;;;;;;;8.71;97.80;102186.41;5099736;28;20237;-74
2024/01/24 11:29:48;;;;;;;;;;;;;;;8.70;98.08;102175.13;5101396;28;19923;-74
2024/01/24 11:32:33;;;;;;;;;;;;;;;8.71;98.29;102161.16;5096564;28;20037;-74
2024/01/24 11:35:17;;;;;;;;;;;;;;;8.71;97.78;102179.44;5095112;28;20401;-74
2024/01/24 11:37:42;;;;;;;;;;;;;;;8.74;98.09;102186.41;5095637;28;19986;-73
2024/01/24 11:40:08;;;;;;;;;;;;;;;8.77;97.34;102200.28;5094527;28;19927;-73
2024/01/24 11:42:36;;;;;;;;;;;;;;;8.79;97.66;102195.06;5091937;28;19928;-73
2024/01/24 11:45:17;;;;;;;;;;;;;;;8.82;98.19;102172.38;5092922;28;20118;-75
2024/01/24 11:47:42;;;;;;;;;;;;;;;8.86;96.71;102191.47;5092039;28;19969;-75
2024/01/24 11:50:08;;;;;;;;;;;;;;;8.89;97.44;102224.53;5095003;28;19928;-72
2024/01/24 11:52:34;;;;;;;;;;;;;;;8.89;97.29;102220.16;5099223;28;19920;-72
2024/01/24 11:54:59;;;;;;;;;;;;;;;8.92;97.55;102221.91;5103802;28;19912;-72
2024/01/24 11:57:25;;;;;;;;;;;;;;;8.92;97.21;102225.38;5113559;28;20316;-73
2024/01/24 11:59:50;;;;;;;;;;;;;;;8.93;97.69;102219.28;5113484;28;19920;-72
2024/01/24 12:02:16;;;;;;;;;;;;;;;8.93;97.30;102227.09;5112346;28;19986;-72
2024/01/24 12:04:41;;;;;;;;;;;;;;;8.93;97.27;102231.44;5112211;28;19932;-72
2024/01/24 12:07:09;;;;;;;;;;;;;;;8.93;97.20;102227.09;5111347;28;19928;-72
2024/01/24 12:09:34;;;;;;;;;;;;;;;8.92;97.08;102214.06;5112866;28;20188;-72
2024/01/24 12:11:59;;;;;;;;;;;;;;;8.90;96.65;102234.13;5109832;28;20146;-73
2024/01/24 12:14:25;;;;;;;;;;;;;;;8.89;97.00;102238.44;5096481;28;19920;-72
2024/01/24 12:16:50;;;;;;;;;;;;;;;8.86;97.38;102251.56;5097695;28;19927;-73
2024/01/24 12:19:16;;;;;;;;;;;;;;;8.82;97.40;102242.00;5096716;28;20224;-72
2024/01/24 12:21:41;;;;;;;;;;;;;;;8.80;97.92;102235.94;5113288;28;19919;-73
2024/01/24 12:24:07;;;;;;;;;;;;;;;8.79;97.68;102231.63;5111757;28;19947;-72
2024/01/24 12:26:33;;;;;;;;;;;;;;;8.80;98.18;102254.22;5112629;28;19961;-73
2024/01/24 12:28:59;;;;;;;;;;;;;;;8.76;98.03;102261.22;5112545;28;20219;-73
2024/01/24 12:31:30;;;;;;;;;;;;;;;8.76;98.31;102279.53;5113592;28;19920;-72